createdAt,value
2023-01-29T00:00:42.848Z,101450.23
2023-01-29T00:05:36.860Z,101442.98
2023-01-29T00:10:29.663Z,101441.08
2023-01-29T00:15:22.613Z,101429.02
2023-01-29T00:20:16.872Z,101427.48
2023-01-29T00:25:11.847Z,101421.50
2023-01-29T00:30:14.933Z,101411.27
2023-01-29T00:35:09.742Z,101413.07
2023-01-29T00:40:04.137Z,101405.53
2023-01-29T00:45:00.088Z,101404.92
2023-01-29T00:49:55.911Z,101409.77
2023-01-29T00:54:48.731Z,101406.83
2023-01-29T00:59:41.483Z,101407.64
2023-01-29T01:04:35.118Z,101399.50
2023-01-29T01:09:44.959Z,101387.76
2023-01-29T01:14:37.958Z,101386.83
2023-01-29T01:19:30.797Z,101367.35
2023-01-29T01:24:23.662Z,101368.33
2023-01-29T01:29:16.582Z,101364.45
2023-01-29T01:34:10.429Z,101360.90
2023-01-29T01:39:03.213Z,101361.13
2023-01-29T01:44:02.139Z,101350.45
2023-01-29T01:49:02.925Z,101352.98
2023-01-29T01:54:08.015Z,101350.02
2023-01-29T01:59:01.084Z,101354.80
2023-01-29T02:04:17.076Z,101355.31
2023-01-29T02:09:33.572Z,101359.80
2023-01-29T02:14:26.531Z,101360.02
2023-01-29T02:19:41.759Z,101359.52
2023-01-29T02:25:10.089Z,101358.73
2023-01-29T02:30:18.477Z,101356.31
2023-01-29T02:35:30.653Z,101363.77
2023-01-29T02:40:32.521Z,101348.93
2023-01-29T02:45:53.691Z,101339.40
2023-01-29T02:50:58.102Z,101343.15
2023-01-29T02:56:08.060Z,101332.45
2023-01-29T03:01:09.122Z,101338.31
2023-01-29T03:06:08.839Z,101333.73
2023-01-29T03:11:05.983Z,101338.30
2023-01-29T03:16:19.246Z,101334.20
2023-01-29T03:21:36.868Z,101326.16
2023-01-29T03:26:47.855Z,101328.42
2023-01-29T03:32:00.477Z,101318.09
2023-01-29T03:36:59.165Z,101311.05
2023-01-29T03:42:10.542Z,101307.72
2023-01-29T03:47:24.199Z,101308.77
2023-01-29T03:52:22.984Z,101314.45
2023-01-29T03:57:32.599Z,101315.80
2023-01-29T04:02:37.072Z,101313.75
2023-01-29T04:07:36.780Z,101306.76
2023-01-29T04:12:52.487Z,101306.61
2023-01-29T04:17:52.782Z,101298.20
2023-01-29T04:23:27.373Z,101300.36
2023-01-29T04:28:29.515Z,101287.67
2023-01-29T04:33:48.839Z,101276.50
2023-01-29T04:39:12.069Z,101278.28
2023-01-29T04:44:28.637Z,101274.02
2023-01-29T04:49:43.291Z,101271.22
2023-01-29T04:54:51.128Z,101264.98
2023-01-29T04:59:49.479Z,101254.29
2023-01-29T05:04:45.657Z,101251.34
2023-01-29T05:09:40.521Z,101248.30
2023-01-29T05:14:36.260Z,101254.80
2023-01-29T05:19:29.107Z,101268.59
2023-01-29T05:24:26.801Z,101265.34
2023-01-29T05:29:19.633Z,101256.52
2023-01-29T05:34:12.451Z,101255.12
2023-01-29T05:39:05.750Z,101249.48
2023-01-29T05:43:58.562Z,101238.10
2023-01-29T05:48:55.831Z,101228.94
2023-01-29T05:53:48.741Z,101231.86
2023-01-29T05:58:41.775Z,101233.23
2023-01-29T06:03:34.556Z,101236.25
2023-01-29T06:08:27.350Z,101234.92
2023-01-29T06:13:23.732Z,101233.02
2023-01-29T06:18:16.645Z,101236.18
2023-01-29T06:23:09.475Z,101241.85
2023-01-29T06:28:03.525Z,101238.77
2023-01-29T06:33:03.100Z,101237.48
2023-01-29T06:37:55.865Z,101243.70
2023-01-29T06:42:51.500Z,101240.55
2023-01-29T06:47:44.329Z,101233.48
2023-01-29T06:52:37.114Z,101229.92
2023-01-29T06:57:31.073Z,101231.56
2023-01-29T07:02:23.919Z,101240.25
2023-01-29T07:07:16.789Z,101240.31
2023-01-29T07:12:11.117Z,101240.89
2023-01-29T07:17:05.025Z,101223.73
2023-01-29T07:21:58.165Z,101216.67
2023-01-29T07:26:50.945Z,101208.56
2023-01-29T07:31:43.808Z,101215.86
2023-01-29T07:36:37.384Z,101221.34
2023-01-29T07:41:30.187Z,101223.48
2023-01-29T07:46:25.662Z,101240.25
2023-01-29T07:51:18.697Z,101239.97
2023-01-29T07:56:11.601Z,101242.61
2023-01-29T08:01:08.690Z,101232.20
2023-01-29T08:06:01.529Z,101217.39
2023-01-29T08:10:54.342Z,101212.16
2023-01-29T08:15:47.305Z,101214.98
2023-01-29T08:20:40.230Z,101219.22
2023-01-29T08:25:33.638Z,101214.05
2023-01-29T08:30:28.924Z,101215.71
2023-01-29T08:35:22.002Z,101210.89
2023-01-29T08:40:15.557Z,101206.87
2023-01-29T08:45:09.388Z,101204.83
2023-01-29T08:50:02.447Z,101202.31
2023-01-29T08:54:55.317Z,101203.25
2023-01-29T08:59:48.086Z,101199.94
2023-01-29T09:04:40.893Z,101198.34
2023-01-29T09:09:33.664Z,101190.05
2023-01-29T09:14:27.828Z,101182.63
2023-01-29T09:19:21.601Z,101172.80
2023-01-29T09:24:14.474Z,101153.39
2023-01-29T09:29:08.246Z,101143.42
2023-01-29T09:34:01.664Z,101143.05
2023-01-29T09:38:54.601Z,101144.55
2023-01-29T09:43:53.165Z,101145.92
2023-01-29T09:48:47.556Z,101137.80
2023-01-29T09:53:59.828Z,101135.06
2023-01-29T09:58:53.181Z,101130.65
2023-01-29T10:04:04.816Z,101118.08
2023-01-29T10:09:13.139Z,101106.45
2023-01-29T10:14:19.989Z,101101.09
2023-01-29T10:19:19.395Z,101091.54
2023-01-29T10:24:24.560Z,101085.36
2023-01-29T10:29:22.204Z,101081.39
2023-01-29T10:34:15.003Z,101077.60
2023-01-29T10:39:19.876Z,101080.67
2023-01-29T10:44:31.589Z,101078.77
2023-01-29T10:49:27.267Z,101074.95
2023-01-29T10:55:01.770Z,101073.27
2023-01-29T11:00:13.241Z,101064.89
2023-01-29T11:05:22.209Z,101061.76
2023-01-29T11:10:23.559Z,101059.13
2023-01-29T11:15:34.975Z,101052.21
2023-01-29T11:20:29.735Z,101039.02
2023-01-29T11:25:23.420Z,101039.20
2023-01-29T11:30:29.088Z,101037.33
2023-01-29T11:35:25.032Z,101030.89
2023-01-29T11:40:22.451Z,101020.03
2023-01-29T11:45:21.380Z,101003.50
2023-01-29T11:50:23.268Z,100990.69
2023-01-29T11:55:23.429Z,100977.14
2023-01-29T12:00:24.262Z,100971.81
2023-01-29T12:05:21.287Z,100969.20
2023-01-29T12:10:34.258Z,100965.07
2023-01-29T12:15:27.326Z,100962.67
2023-01-29T12:20:28.257Z,100957.67
2023-01-29T12:25:37.871Z,100946.14
2023-01-29T12:30:55.582Z,100935.60
2023-01-29T12:35:57.728Z,100933.15
2023-01-29T12:41:10.150Z,100932.09
2023-01-29T12:46:03.904Z,100931.60
2023-01-29T12:51:05.095Z,100920.75
2023-01-29T12:56:06.953Z,100910.37
2023-01-29T13:01:10.069Z,100898.60
2023-01-29T13:06:11.356Z,100890.98
2023-01-29T13:11:09.856Z,100891.79
2023-01-29T13:16:08.206Z,100898.27
2023-01-29T13:21:02.315Z,100911.02
2023-01-29T13:25:55.740Z,100916.14
2023-01-29T13:30:49.264Z,100919.09
2023-01-29T13:35:44.850Z,100907.81
2023-01-29T13:40:38.600Z,100906.16
2023-01-29T13:45:37.406Z,100908.64
2023-01-29T13:50:38.667Z,100901.57
2023-01-29T13:55:40.057Z,100885.84
2023-01-29T14:00:35.675Z,100872.23
2023-01-29T14:05:31.738Z,100878.01
2023-01-29T14:10:25.704Z,100877.52
2023-01-29T14:15:30.901Z,100878.02
2023-01-29T14:20:50.116Z,100897.79
2023-01-29T14:25:43.110Z,100911.30
2023-01-29T14:30:36.727Z,100921.33
2023-01-29T14:35:33.868Z,100918.40
2023-01-29T14:40:29.836Z,100922.14
2023-01-29T14:45:28.452Z,100914.65
2023-01-29T14:50:32.016Z,100897.30
2023-01-29T14:55:28.657Z,100881.52
2023-01-29T15:00:43.775Z,100878.32
2023-01-29T15:05:38.771Z,100873.02
2023-01-29T15:10:43.950Z,100873.94
2023-01-29T15:15:44.996Z,100882.67
2023-01-29T15:20:40.956Z,100881.64
2023-01-29T15:25:47.637Z,100873.86
2023-01-29T15:30:43.328Z,100883.13
2023-01-29T15:35:41.980Z,100875.59
2023-01-29T15:40:36.371Z,100872.01
2023-01-29T15:45:34.588Z,100852.48
2023-01-29T15:50:27.494Z,100848.83
2023-01-29T15:55:24.503Z,100845.23
2023-01-29T16:00:29.763Z,100851.33
2023-01-29T16:05:33.769Z,100842.23
2023-01-29T16:10:32.442Z,100838.42
2023-01-29T16:15:35.007Z,100844.23
2023-01-29T16:20:36.560Z,100844.45
2023-01-29T16:25:31.597Z,100841.38
2023-01-29T16:30:28.052Z,100847.02
2023-01-29T16:35:21.141Z,100841.57
2023-01-29T16:40:26.046Z,100845.41
2023-01-29T16:45:30.366Z,100848.94
2023-01-29T16:50:46.279Z,100846.00
2023-01-29T16:55:49.875Z,100847.80
2023-01-29T17:01:10.812Z,100863.05
2023-01-29T17:06:14.100Z,100858.02
2023-01-29T17:11:07.662Z,100849.20
2023-01-29T17:16:03.901Z,100843.73
2023-01-29T17:20:56.930Z,100834.23
2023-01-29T17:25:50.273Z,100822.94
2023-01-29T17:30:46.440Z,100808.60
2023-01-29T17:35:45.825Z,100805.52
2023-01-29T17:40:51.073Z,100795.69
2023-01-29T17:45:44.206Z,100789.99
2023-01-29T17:50:41.162Z,100778.58
2023-01-29T17:55:33.965Z,100773.48
2023-01-29T18:00:26.807Z,100758.98
2023-01-29T18:05:20.377Z,100746.43
2023-01-29T18:10:22.130Z,100736.49
2023-01-29T18:15:16.051Z,100733.79
2023-01-29T18:20:18.910Z,100721.92
2023-01-29T18:25:12.003Z,100707.65
2023-01-29T18:30:06.115Z,100698.98
2023-01-29T18:34:59.050Z,100699.23
2023-01-29T18:39:52.572Z,100694.29
2023-01-29T18:44:45.514Z,100687.95
2023-01-29T18:49:39.385Z,100693.89
2023-01-29T18:54:32.218Z,100695.45
2023-01-29T18:59:25.026Z,100693.42
2023-01-29T19:04:18.453Z,100688.80
2023-01-29T19:09:11.589Z,100687.32
2023-01-29T19:14:05.222Z,100679.11
2023-01-29T19:18:59.158Z,100678.36
2023-01-29T19:23:52.119Z,100671.35
2023-01-29T19:28:45.040Z,100671.80
2023-01-29T19:33:39.116Z,100675.61
2023-01-29T19:38:38.061Z,100666.91
2023-01-29T19:43:31.905Z,100652.63
2023-01-29T19:48:26.550Z,100649.13
2023-01-29T19:53:19.479Z,100646.70
2023-01-29T19:58:12.553Z,100638.31
2023-01-29T20:03:05.363Z,100630.52
2023-01-29T20:07:58.169Z,100626.88
2023-01-29T20:12:50.984Z,100619.88
2023-01-29T20:17:45.561Z,100611.69
2023-01-29T20:22:38.359Z,100604.95
2023-01-29T20:27:31.161Z,100599.30
2023-01-29T20:32:24.233Z,100597.63
2023-01-29T20:37:16.981Z,100598.90
2023-01-29T20:42:09.821Z,100586.20
2023-01-29T20:47:02.783Z,100581.58
2023-01-29T20:51:55.745Z,100568.72
2023-01-29T20:56:48.747Z,100558.80
2023-01-29T21:01:42.723Z,100555.74
2023-01-29T21:06:35.623Z,100548.34
2023-01-29T21:11:28.694Z,100543.11
2023-01-29T21:16:21.857Z,100540.77
2023-01-29T21:21:14.696Z,100534.13
2023-01-29T21:26:08.765Z,100533.24
2023-01-29T21:31:11.346Z,100533.73
2023-01-29T21:36:05.467Z,100529.42
2023-01-29T21:41:07.284Z,100521.30
2023-01-29T21:46:03.998Z,100517.48
2023-01-29T21:50:57.507Z,100519.75
2023-01-29T21:55:50.360Z,100511.82
2023-01-29T22:00:43.221Z,100508.41
2023-01-29T22:05:36.197Z,100497.16
2023-01-29T22:10:29.161Z,100488.55
2023-01-29T22:15:23.924Z,100478.18
2023-01-29T22:20:17.740Z,100471.65
2023-01-29T22:25:11.148Z,100459.39
2023-01-29T22:30:05.501Z,100440.23
2023-01-29T22:34:58.574Z,100426.83
2023-01-29T22:39:52.918Z,100421.44
2023-01-29T22:44:46.293Z,100410.55
2023-01-29T22:49:42.234Z,100398.06
2023-01-29T22:54:35.037Z,100383.64
2023-01-29T22:59:30.132Z,100377.56
2023-01-29T23:04:23.122Z,100369.22
2023-01-29T23:09:16.043Z,100357.84
2023-01-29T23:14:08.952Z,100351.49
2023-01-29T23:19:01.862Z,100336.33
2023-01-29T23:23:55.566Z,100327.35
2023-01-29T23:28:49.469Z,100320.45
2023-01-29T23:33:42.385Z,100312.27
2023-01-29T23:38:37.809Z,100306.23
2023-01-29T23:43:31.508Z,100295.09
2023-01-29T23:48:24.809Z,100293.50
2023-01-29T23:53:20.106Z,100279.06
2023-01-29T23:58:12.918Z,100275.83
